createdAt,value
2022-10-12T00:00:41.477Z,6.37
2022-10-12T00:03:08.445Z,6.27
2022-10-12T00:05:35.215Z,6.27
2022-10-12T00:08:01.946Z,6.22
2022-10-12T00:10:28.868Z,6.12
2022-10-12T00:12:55.801Z,6.09
2022-10-12T00:15:22.616Z,5.98
2022-10-12T00:17:49.454Z,5.99
2022-10-12T00:20:19.341Z,6.04
2022-10-12T00:22:46.142Z,5.96
2022-10-12T00:25:15.145Z,6.10
2022-10-12T00:27:53.840Z,5.87
2022-10-12T00:30:28.867Z,5.87
2022-10-12T00:33:02.409Z,5.93
2022-10-12T00:35:37.555Z,5.96
2022-10-12T00:38:09.599Z,6.03
2022-10-12T00:40:39.402Z,6.01
2022-10-12T00:43:38.928Z,6.00
2022-10-12T00:46:16.133Z,5.98
2022-10-12T00:48:52.355Z,5.95
2022-10-12T00:51:23.020Z,6.00
2022-10-12T00:54:01.232Z,6.19
2022-10-12T00:56:45.280Z,6.27
2022-10-12T00:59:21.479Z,6.17
2022-10-12T01:02:17.257Z,6.16
2022-10-12T01:04:45.794Z,6.18
2022-10-12T01:07:19.132Z,6.16
2022-10-12T01:09:55.070Z,6.10
2022-10-12T01:12:29.756Z,5.97
2022-10-12T01:15:09.679Z,5.76
2022-10-12T01:17:52.937Z,5.81
2022-10-12T01:20:54.659Z,5.76
2022-10-12T01:23:45.714Z,5.64
2022-10-12T01:26:34.563Z,5.55
2022-10-12T01:29:23.395Z,5.53
2022-10-12T01:32:11.093Z,5.49
2022-10-12T01:34:54.221Z,5.48
2022-10-12T01:37:51.695Z,5.47
2022-10-12T01:40:28.371Z,5.39
2022-10-12T01:43:01.074Z,5.30
2022-10-12T01:45:28.304Z,5.34
2022-10-12T01:47:58.145Z,5.44
2022-10-12T01:50:33.662Z,5.45
2022-10-12T01:53:17.563Z,5.47
2022-10-12T01:56:30.018Z,5.44
2022-10-12T01:59:24.722Z,5.37
2022-10-12T02:02:00.205Z,5.35
2022-10-12T02:04:42.675Z,5.26
2022-10-12T02:07:20.504Z,5.29
2022-10-12T02:10:04.466Z,5.28
2022-10-12T02:12:32.418Z,5.29
2022-10-12T02:15:06.337Z,5.37
2022-10-12T02:17:40.922Z,5.27
2022-10-12T02:20:13.657Z,5.28
2022-10-12T02:22:48.102Z,5.28
2022-10-12T02:25:22.592Z,5.26
2022-10-12T02:28:09.216Z,5.21
2022-10-12T02:30:50.332Z,5.27
2022-10-12T02:33:48.102Z,5.29
2022-10-12T02:36:24.159Z,5.31
2022-10-12T02:39:05.165Z,5.30
2022-10-12T02:41:38.773Z,5.28
2022-10-12T02:44:36.346Z,5.20
2022-10-12T02:47:11.727Z,5.19
2022-10-12T02:49:41.692Z,5.14
2022-10-12T02:52:11.646Z,5.13
2022-10-12T02:54:40.073Z,5.22
2022-10-12T02:57:06.888Z,5.22
2022-10-12T02:59:33.827Z,5.16
2022-10-12T03:02:03.490Z,5.23
2022-10-12T03:04:30.280Z,5.29
2022-10-12T03:06:56.936Z,5.21
2022-10-12T03:09:23.696Z,5.21
2022-10-12T03:16:44.352Z,5.13
2022-10-12T03:19:22.629Z,5.25
2022-10-12T03:21:49.563Z,5.30
2022-10-12T03:24:16.320Z,5.29
2022-10-12T03:26:44.315Z,5.30
2022-10-12T03:29:12.285Z,5.39
2022-10-12T03:31:40.940Z,5.40
2022-10-12T03:34:07.711Z,5.30
2022-10-12T03:36:34.565Z,5.28
2022-10-12T03:39:10.931Z,5.18
2022-10-12T03:41:37.803Z,5.09
2022-10-12T03:44:04.924Z,5.12
2022-10-12T03:46:34.665Z,5.18
2022-10-12T03:49:01.378Z,5.04
2022-10-12T03:51:28.094Z,5.08
2022-10-12T03:53:54.855Z,5.01
2022-10-12T03:56:21.802Z,4.91
2022-10-12T03:58:48.691Z,4.88
2022-10-12T04:01:15.499Z,4.82
2022-10-12T04:03:45.031Z,4.82
2022-10-12T04:06:12.117Z,4.79
2022-10-12T04:08:40.224Z,4.75
2022-10-12T04:11:07.282Z,4.76
2022-10-12T04:13:34.173Z,4.75
2022-10-12T04:16:10.986Z,4.75
2022-10-12T04:18:38.033Z,4.81
2022-10-12T04:21:13.111Z,4.83
2022-10-12T04:23:40.011Z,4.78
2022-10-12T04:26:07.137Z,4.80
2022-10-12T04:28:34.279Z,4.76
2022-10-12T04:31:01.252Z,4.79
2022-10-12T04:33:28.344Z,4.87
2022-10-12T04:35:55.129Z,4.84
2022-10-12T04:38:21.858Z,4.99
2022-10-12T04:40:49.202Z,5.08
2022-10-12T04:43:19.928Z,5.13
2022-10-12T04:45:54.877Z,5.19
2022-10-12T04:48:22.944Z,5.20
2022-10-12T04:50:52.528Z,5.15
2022-10-12T04:53:23.080Z,5.12
2022-10-12T04:55:49.866Z,5.13
2022-10-12T04:58:20.525Z,5.14
2022-10-12T05:00:49.053Z,5.13
2022-10-12T05:03:15.846Z,5.25
2022-10-12T05:05:44.679Z,5.29
2022-10-12T05:08:12.572Z,5.29
2022-10-12T05:10:40.531Z,5.35
2022-10-12T05:13:07.622Z,5.44
2022-10-12T05:15:34.320Z,5.35
2022-10-12T05:18:03.911Z,5.33
2022-10-12T05:20:33.285Z,5.28
2022-10-12T05:23:00.029Z,5.31
2022-10-12T05:25:29.569Z,5.32
2022-10-12T05:27:57.493Z,5.30
2022-10-12T05:30:24.667Z,5.33
2022-10-12T05:32:51.757Z,5.21
2022-10-12T05:35:18.563Z,5.23
2022-10-12T05:37:45.313Z,5.28
2022-10-12T05:40:12.296Z,5.31
2022-10-12T05:42:39.683Z,5.27
2022-10-12T05:45:07.531Z,5.11
2022-10-12T05:47:34.376Z,5.17
2022-10-12T05:50:01.196Z,5.20
2022-10-12T05:52:27.983Z,5.29
2022-10-12T05:54:54.748Z,5.35
2022-10-12T05:57:21.697Z,5.39
2022-10-12T05:59:48.409Z,5.37
2022-10-12T06:02:17.190Z,5.41
2022-10-12T06:04:44.080Z,5.49
2022-10-12T06:07:10.917Z,5.30
2022-10-12T06:09:39.916Z,5.14
2022-10-12T06:12:07.795Z,5.23
2022-10-12T06:14:34.777Z,5.37
2022-10-12T06:17:01.537Z,5.45
2022-10-12T06:19:28.504Z,5.50
2022-10-12T06:21:55.549Z,5.55
2022-10-12T06:24:23.822Z,5.53
2022-10-12T06:26:53.040Z,5.64
2022-10-12T06:29:23.390Z,5.66
2022-10-12T06:31:55.849Z,5.70
2022-10-12T06:34:22.833Z,5.78
2022-10-12T06:36:50.057Z,5.83
2022-10-12T06:39:17.085Z,5.91
2022-10-12T06:41:44.020Z,6.07
2022-10-12T06:44:11.091Z,6.18
2022-10-12T06:46:38.151Z,6.28
2022-10-12T06:49:05.188Z,6.40
2022-10-12T06:51:32.005Z,6.45
2022-10-12T06:53:58.819Z,6.54
2022-10-12T06:56:25.651Z,6.59
2022-10-12T06:58:58.519Z,6.65
2022-10-12T07:01:25.597Z,6.76
2022-10-12T07:03:53.501Z,6.72
2022-10-12T07:06:21.864Z,6.84
2022-10-12T07:08:50.329Z,6.90
2022-10-12T07:11:17.022Z,6.93
2022-10-12T07:13:43.767Z,6.99
2022-10-12T07:16:10.523Z,7.06
2022-10-12T07:18:37.440Z,7.13
2022-10-12T07:21:04.236Z,7.18
2022-10-12T07:23:32.276Z,7.28
2022-10-12T07:25:59.316Z,7.35
2022-10-12T07:28:26.500Z,7.43
2022-10-12T07:30:53.298Z,7.49
2022-10-12T07:33:20.039Z,7.60
2022-10-12T07:36:12.803Z,7.66
2022-10-12T07:38:40.449Z,7.80
2022-10-12T07:41:07.683Z,7.86
2022-10-12T07:43:34.457Z,7.91
2022-10-12T07:46:01.179Z,7.97
2022-10-12T07:48:27.895Z,7.99
2022-10-12T07:50:54.632Z,8.06
2022-10-12T07:53:21.916Z,8.13
2022-10-12T07:55:48.602Z,8.23
2022-10-12T07:58:15.456Z,8.25
2022-10-12T08:00:42.305Z,8.31
2022-10-12T08:03:09.036Z,8.41
2022-10-12T08:05:38.120Z,8.45
2022-10-12T08:08:05.092Z,8.56
2022-10-12T08:10:34.334Z,8.66
2022-10-12T08:13:01.160Z,8.70
2022-10-12T08:15:28.013Z,8.80
2022-10-12T08:17:54.705Z,8.87
2022-10-12T08:20:21.426Z,8.94
2022-10-12T08:22:48.135Z,9.00
2022-10-12T08:25:15.191Z,9.05
2022-10-12T08:27:49.037Z,9.10
2022-10-12T08:30:16.020Z,9.15
2022-10-12T08:32:42.795Z,9.19
2022-10-12T08:35:09.655Z,9.27
2022-10-12T08:37:36.488Z,9.34
2022-10-12T08:40:04.114Z,9.41
2022-10-12T08:42:39.980Z,9.52
2022-10-12T08:45:34.879Z,9.61
2022-10-12T08:48:09.377Z,9.63
2022-10-12T08:50:41.038Z,9.71
2022-10-12T08:53:23.044Z,9.76
2022-10-12T08:55:49.889Z,9.84
2022-10-12T08:58:18.588Z,9.92
2022-10-12T09:00:48.443Z,9.99
2022-10-12T09:03:38.827Z,10.05
2022-10-12T09:06:17.422Z,10.09
2022-10-12T09:08:53.584Z,10.17
2022-10-12T09:11:23.349Z,10.24
2022-10-12T09:14:01.280Z,10.24
2022-10-12T09:16:31.269Z,10.33
2022-10-12T09:19:13.224Z,10.35
2022-10-12T09:21:40.394Z,10.41
2022-10-12T09:24:15.218Z,10.48
2022-10-12T09:26:42.573Z,10.61
2022-10-12T09:29:26.231Z,10.65
2022-10-12T09:32:06.137Z,10.74
2022-10-12T09:34:32.939Z,10.82
2022-10-12T09:37:02.723Z,10.87
2022-10-12T09:39:31.880Z,10.95
2022-10-12T09:41:58.596Z,11.04
2022-10-12T09:44:32.733Z,11.15
2022-10-12T09:47:03.725Z,11.23
2022-10-12T09:49:47.724Z,11.26
2022-10-12T09:52:15.525Z,11.39
2022-10-12T09:54:47.741Z,11.46
2022-10-12T09:57:26.385Z,11.54
2022-10-12T09:59:53.312Z,11.63
2022-10-12T10:02:22.191Z,11.76
2022-10-12T10:04:50.263Z,11.82
2022-10-12T10:07:22.996Z,11.87
2022-10-12T10:10:13.519Z,11.93
2022-10-12T10:12:50.475Z,12.02
2022-10-12T10:15:21.997Z,12.10
2022-10-12T10:17:54.280Z,12.13
2022-10-12T10:20:43.969Z,12.26
2022-10-12T10:23:24.286Z,12.41
2022-10-12T10:25:59.843Z,12.49
2022-10-12T10:28:32.441Z,12.58
2022-10-12T10:31:07.541Z,12.64
2022-10-12T10:33:35.503Z,12.63
2022-10-12T10:36:19.748Z,12.73
2022-10-12T10:39:06.637Z,12.82
2022-10-12T10:41:37.650Z,12.96
2022-10-12T10:44:22.580Z,13.00
2022-10-12T10:46:49.571Z,13.09
2022-10-12T10:49:49.431Z,13.23
2022-10-12T10:52:27.180Z,13.37
2022-10-12T10:55:19.269Z,13.41
2022-10-12T10:57:56.885Z,13.50
2022-10-12T11:00:38.499Z,13.60
2022-10-12T11:03:16.575Z,13.71
2022-10-12T11:05:50.196Z,13.85
2022-10-12T11:08:26.482Z,13.95
2022-10-12T11:11:00.572Z,13.92
2022-10-12T11:14:18.688Z,13.92
2022-10-12T11:16:50.825Z,14.07
2022-10-12T11:20:02.311Z,14.21
2022-10-12T11:22:51.848Z,14.38
2022-10-12T11:25:26.143Z,14.41
2022-10-12T11:27:56.390Z,14.35
2022-10-12T11:30:29.650Z,14.42
2022-10-12T11:33:05.786Z,14.56
2022-10-12T11:35:36.039Z,14.68
2022-10-12T11:38:12.846Z,14.59
2022-10-12T11:41:05.971Z,14.70
2022-10-12T11:44:15.983Z,14.77
2022-10-12T11:46:53.933Z,14.81
2022-10-12T11:49:31.095Z,15.06
2022-10-12T11:52:00.612Z,15.32
2022-10-12T11:54:51.651Z,15.45
2022-10-12T11:57:24.755Z,15.44
2022-10-12T12:00:05.560Z,15.45
2022-10-12T12:02:41.865Z,15.37
2022-10-12T12:05:16.579Z,15.38
2022-10-12T12:07:49.762Z,15.48
2022-10-12T12:10:25.809Z,15.74
2022-10-12T12:13:18.424Z,16.03
2022-10-12T12:15:47.988Z,16.09
2022-10-12T12:18:22.019Z,16.03
2022-10-12T12:21:08.007Z,15.61
2022-10-12T12:23:42.709Z,15.73
2022-10-12T12:26:14.653Z,15.93
2022-10-12T12:28:46.545Z,16.31
2022-10-12T12:31:25.667Z,16.51
2022-10-12T12:34:04.609Z,16.65
2022-10-12T12:36:36.981Z,16.85
2022-10-12T12:39:05.841Z,17.05
2022-10-12T12:42:01.298Z,17.08
2022-10-12T12:44:43.032Z,17.24
2022-10-12T12:50:00.696Z,17.28
2022-10-12T12:52:35.834Z,17.24
2022-10-12T12:55:15.198Z,17.34
2022-10-12T12:57:48.902Z,17.33
2022-10-12T13:00:23.949Z,17.45
2022-10-12T13:03:21.829Z,17.53
2022-10-12T13:06:19.730Z,17.65
2022-10-12T13:08:56.547Z,17.60
2022-10-12T13:11:58.387Z,17.70
2022-10-12T13:14:41.809Z,18.12
2022-10-12T13:17:32.245Z,18.22
2022-10-12T13:19:59.275Z,18.40
2022-10-12T13:22:33.032Z,18.49
2022-10-12T13:25:03.925Z,18.42
2022-10-12T13:27:35.862Z,18.51
2022-10-12T13:30:13.905Z,18.58
2022-10-12T13:32:59.410Z,18.56
2022-10-12T13:35:32.554Z,18.53
2022-10-12T13:38:05.588Z,18.56
2022-10-12T13:40:37.279Z,18.55
2022-10-12T13:43:25.500Z,18.61
2022-10-12T13:45:52.274Z,18.82
2022-10-12T13:48:39.845Z,18.79
2022-10-12T13:51:21.901Z,18.67
2022-10-12T13:53:48.580Z,18.68
2022-10-12T13:56:18.631Z,18.53
2022-10-12T13:58:45.447Z,18.64
2022-10-12T14:01:12.900Z,18.56
2022-10-12T14:03:42.510Z,18.38
2022-10-12T14:06:30.120Z,18.57
2022-10-12T14:09:10.000Z,18.79
2022-10-12T14:11:37.409Z,19.07
2022-10-12T14:14:04.183Z,18.93
2022-10-12T14:16:30.924Z,19.12
2022-10-12T14:19:17.603Z,18.83
2022-10-12T14:21:47.310Z,18.97
2022-10-12T14:24:18.799Z,18.71
2022-10-12T14:26:54.248Z,18.37
2022-10-12T14:29:39.551Z,18.52
2022-10-12T14:32:29.585Z,18.65
2022-10-12T14:35:10.940Z,18.60
2022-10-12T14:37:40.462Z,18.68
2022-10-12T14:40:27.471Z,18.78
2022-10-12T14:43:03.525Z,18.77
2022-10-12T14:45:31.484Z,18.75
2022-10-12T14:48:00.091Z,18.67
2022-10-12T14:50:28.805Z,18.65
2022-10-12T14:52:57.537Z,18.89
2022-10-12T14:55:27.379Z,18.84
2022-10-12T14:57:54.131Z,19.13
2022-10-12T15:00:23.562Z,19.21
2022-10-12T15:02:50.910Z,19.16
2022-10-12T15:05:21.464Z,19.14
2022-10-12T15:07:48.468Z,19.00
2022-10-12T15:10:16.377Z,18.93
2022-10-12T15:12:43.891Z,18.81
2022-10-12T15:15:28.830Z,19.25
2022-10-12T15:17:58.601Z,20.81
2022-10-12T15:20:26.584Z,21.66
2022-10-12T15:22:53.468Z,22.21
2022-10-12T15:25:26.764Z,22.36
2022-10-12T15:27:53.436Z,22.39
2022-10-12T15:30:20.277Z,21.78
2022-10-12T15:32:47.927Z,19.82
2022-10-12T15:35:18.991Z,18.44
2022-10-12T15:37:46.069Z,17.56
2022-10-12T15:40:13.257Z,17.00
2022-10-12T15:42:42.550Z,16.54
2022-10-12T15:45:16.814Z,16.25
2022-10-12T15:47:45.179Z,15.82
2022-10-12T15:50:26.602Z,15.65
2022-10-12T15:52:54.370Z,15.58
2022-10-12T15:55:23.833Z,15.47
2022-10-12T15:57:51.779Z,15.33
2022-10-12T16:00:20.786Z,15.20
2022-10-12T16:02:47.687Z,15.02
2022-10-12T16:05:26.504Z,14.82
2022-10-12T16:07:54.015Z,14.59
2022-10-12T16:10:23.547Z,14.46
2022-10-12T16:12:51.906Z,14.31
2022-10-12T16:15:22.792Z,14.12
2022-10-12T16:17:50.347Z,13.98
2022-10-12T16:20:17.392Z,13.81
2022-10-12T16:22:44.659Z,13.75
2022-10-12T16:25:13.076Z,13.66
2022-10-12T16:27:39.896Z,13.52
2022-10-12T16:30:07.835Z,13.49
2022-10-12T16:32:34.750Z,13.51
2022-10-12T16:35:01.718Z,13.42
2022-10-12T16:37:28.706Z,13.27
2022-10-12T16:39:55.615Z,13.18
2022-10-12T16:42:22.832Z,13.09
2022-10-12T16:44:49.864Z,13.02
2022-10-12T16:47:16.674Z,12.96
2022-10-12T16:49:43.623Z,12.90
2022-10-12T16:52:10.353Z,12.83
2022-10-12T16:54:37.056Z,12.76
2022-10-12T16:57:04.024Z,12.71
2022-10-12T16:59:30.706Z,12.68
2022-10-12T17:01:57.665Z,12.65
2022-10-12T17:04:24.370Z,12.61
2022-10-12T17:06:51.252Z,12.54
2022-10-12T17:09:17.981Z,12.46
2022-10-12T17:11:44.672Z,12.38
2022-10-12T17:14:13.998Z,12.26
2022-10-12T17:16:50.055Z,12.29
2022-10-12T17:19:24.544Z,12.21
2022-10-12T17:21:53.921Z,12.22
2022-10-12T17:24:21.776Z,12.07
2022-10-12T17:26:48.435Z,12.01
2022-10-12T17:29:18.314Z,11.96
2022-10-12T17:31:45.894Z,11.85
2022-10-12T17:34:24.473Z,11.76
2022-10-12T17:36:52.503Z,11.69
2022-10-12T17:39:19.657Z,11.54
2022-10-12T17:41:46.627Z,11.46
2022-10-12T17:44:13.724Z,11.34
2022-10-12T17:46:42.078Z,11.13
2022-10-12T17:49:11.482Z,10.96
2022-10-12T17:51:38.198Z,10.88
2022-10-12T17:54:05.130Z,10.81
2022-10-12T17:56:31.942Z,10.92
2022-10-12T17:59:00.778Z,10.73
2022-10-12T18:01:28.769Z,10.69
2022-10-12T18:03:55.815Z,10.74
2022-10-12T18:06:23.913Z,10.61
2022-10-12T18:12:54.442Z,10.45
2022-10-12T18:15:36.612Z,10.30
2022-10-12T18:18:18.723Z,10.34
2022-10-12T19:21:23.108Z,9.67
2022-10-12T19:36:50.676Z,9.50
2022-10-12T19:43:53.597Z,9.58
2022-10-12T19:51:45.229Z,9.43
2022-10-12T20:02:22.585Z,9.26
2022-10-12T20:09:30.089Z,9.22
2022-10-12T20:12:53.251Z,9.15
2022-10-12T20:19:22.158Z,9.11
2022-10-12T20:39:28.353Z,9.04
2022-10-12T20:46:14.069Z,9.08
2022-10-12T20:56:16.086Z,8.99
2022-10-12T20:59:12.393Z,9.09
2022-10-12T21:01:48.520Z,8.95
2022-10-12T21:04:40.519Z,9.04
2022-10-12T21:07:23.066Z,9.04
2022-10-12T21:10:09.990Z,9.07
2022-10-12T21:13:02.307Z,9.02
2022-10-12T21:15:54.432Z,8.96
2022-10-12T21:18:55.122Z,9.02
2022-10-12T21:21:33.490Z,9.09
2022-10-12T21:24:24.350Z,9.00
2022-10-12T21:45:30.804Z,8.81
2022-10-12T21:52:50.721Z,8.96
2022-10-12T21:59:35.929Z,8.82
2022-10-12T22:03:14.963Z,8.85
2022-10-12T22:06:28.507Z,8.79
2022-10-12T22:10:13.652Z,8.77
2022-10-12T22:12:58.957Z,8.77
2022-10-12T22:15:53.000Z,8.67
2022-10-12T22:18:55.030Z,8.67
2022-10-12T22:21:41.899Z,8.68
2022-10-12T22:24:13.325Z,8.61
2022-10-12T22:27:16.080Z,8.58
2022-10-12T22:33:23.098Z,8.60
2022-10-12T22:40:14.267Z,8.53
2022-10-12T22:46:42.222Z,8.43
2022-10-12T22:49:50.305Z,8.45
2022-10-12T22:53:07.344Z,8.40
2022-10-12T22:56:03.126Z,8.45
2022-10-12T22:58:51.208Z,8.38
2022-10-12T23:01:56.922Z,8.37
2022-10-12T23:11:10.445Z,8.20
2022-10-12T23:13:47.342Z,8.19
2022-10-12T23:16:58.637Z,8.09
2022-10-12T23:20:35.715Z,8.14
2022-10-12T23:23:41.566Z,8.25
2022-10-12T23:26:59.587Z,8.11
2022-10-12T23:30:26.411Z,8.14
2022-10-12T23:33:39.385Z,8.12
2022-10-12T23:47:41.951Z,8.06
2022-10-12T23:51:06.834Z,7.99
2022-10-12T23:54:13.297Z,7.97
2022-10-12T23:57:45.175Z,7.85
